createdAt,value
2018-09-09T00:01:51.598Z,98525.47
2018-09-09T00:04:20.614Z,98536.80
2018-09-09T00:06:49.580Z,98537.45
2018-09-09T00:09:23.954Z,98536.45
2018-09-09T00:11:53.357Z,98529.96
2018-09-09T00:14:22.110Z,98533.78
2018-09-09T00:16:51.569Z,98530.02
2018-09-09T00:19:20.974Z,98531.96
2018-09-09T00:21:50.108Z,98531.77
2018-09-09T00:24:18.994Z,98531.53
2018-09-09T00:26:47.570Z,98528.23
2018-09-09T00:29:17.035Z,98534.27
2018-09-09T00:31:45.943Z,98534.83
2018-09-09T00:34:15.555Z,98532.42
2018-09-09T00:36:44.450Z,98530.08
2018-09-09T00:39:14.265Z,98537.48
2018-09-09T00:41:42.876Z,98541.00
2018-09-09T00:44:11.737Z,98540.17
2018-09-09T00:46:40.421Z,98542.30
2018-09-09T00:49:14.338Z,98540.19
2018-09-09T00:51:49.380Z,98541.34
2018-09-09T00:54:17.946Z,98543.41
2018-09-09T00:56:47.943Z,98544.22
2018-09-09T00:59:16.889Z,98543.57
2018-09-09T01:01:46.428Z,98537.93
2018-09-09T01:04:15.604Z,98539.08
2018-09-09T01:06:44.908Z,98542.09
2018-09-09T01:09:15.241Z,98540.69
2018-09-09T01:11:44.249Z,98539.28
2018-09-09T01:14:13.016Z,98537.20
2018-09-09T01:16:41.834Z,98538.00
2018-09-09T01:19:10.528Z,98546.11
2018-09-09T01:21:39.193Z,98550.23
2018-09-09T01:24:07.892Z,98548.66
2018-09-09T01:26:36.707Z,98552.70
2018-09-09T01:29:05.904Z,98551.11
2018-09-09T01:31:34.768Z,98557.61
2018-09-09T01:34:04.533Z,98556.03
2018-09-09T01:36:34.459Z,98557.69
2018-09-09T01:39:03.460Z,98556.65
2018-09-09T01:41:32.275Z,98561.77
2018-09-09T01:44:01.285Z,98554.00
2018-09-09T01:46:30.139Z,98560.73
2018-09-09T01:48:58.750Z,98567.79
2018-09-09T01:51:27.498Z,98561.59
2018-09-09T01:53:56.140Z,98563.95
2018-09-09T01:56:26.656Z,98565.86
2018-09-09T01:58:56.581Z,98567.01
2018-09-09T02:01:25.761Z,98563.27
2018-09-09T02:03:54.664Z,98562.45
2018-09-09T02:06:23.983Z,98555.98
2018-09-09T02:08:52.603Z,98568.44
2018-09-09T02:11:21.350Z,98566.28
2018-09-09T02:13:50.868Z,98567.38
2018-09-09T02:16:19.804Z,98556.07
2018-09-09T02:18:49.393Z,98557.44
2018-09-09T02:21:18.568Z,98561.00
2018-09-09T02:23:47.833Z,98559.44
2018-09-09T02:26:16.667Z,98559.71
2018-09-09T02:28:45.334Z,98566.77
2018-09-09T02:31:13.934Z,98558.17
2018-09-09T02:33:42.867Z,98562.74
2018-09-09T02:36:12.175Z,98561.94
2018-09-09T02:38:40.965Z,98568.15
2018-09-09T02:41:10.547Z,98566.03
2018-09-09T02:43:39.317Z,98573.08
2018-09-09T02:46:08.026Z,98567.11
2018-09-09T02:48:36.639Z,98568.22
2018-09-09T02:51:05.336Z,98571.20
2018-09-09T02:53:34.889Z,98577.15
2018-09-09T02:56:08.832Z,98580.66
2018-09-09T02:58:37.548Z,98577.39
2018-09-09T03:01:06.366Z,98582.25
2018-09-09T03:03:35.096Z,98580.66
2018-09-09T03:06:04.818Z,98583.36
2018-09-09T03:08:33.725Z,98585.78
2018-09-09T03:11:07.703Z,98580.95
2018-09-09T03:13:36.538Z,98587.17
2018-09-09T03:16:05.248Z,98590.95
2018-09-09T03:18:33.824Z,98586.13
2018-09-09T03:21:02.609Z,98580.20
2018-09-09T03:23:31.613Z,98583.97
2018-09-09T03:26:01.253Z,98578.05
2018-09-09T03:28:30.179Z,98571.30
2018-09-09T03:30:58.978Z,98572.89
2018-09-09T03:33:27.699Z,98572.64
2018-09-09T03:35:56.310Z,98568.61
2018-09-09T03:38:25.589Z,98565.67
2018-09-09T03:40:55.229Z,98566.73
2018-09-09T03:43:23.981Z,98561.09
2018-09-09T03:45:52.888Z,98565.97
2018-09-09T03:48:21.489Z,98563.03
2018-09-09T03:50:50.159Z,98566.27
2018-09-09T03:53:18.899Z,98564.38
2018-09-09T03:55:47.601Z,98569.49
2018-09-09T03:58:16.234Z,98557.11
2018-09-09T04:00:44.814Z,98559.84
2018-09-09T04:03:13.470Z,98560.63
2018-09-09T04:05:42.036Z,98562.55
2018-09-09T04:08:10.849Z,98569.81
2018-09-09T04:10:39.567Z,98574.39
2018-09-09T04:13:08.790Z,98579.25
2018-09-09T04:15:37.736Z,98576.02
2018-09-09T04:18:06.308Z,98580.63
2018-09-09T04:20:35.671Z,98574.42
2018-09-09T04:23:04.567Z,98580.88
2018-09-09T04:25:33.265Z,98588.97
2018-09-09T04:28:03.049Z,98584.64
2018-09-09T04:30:31.705Z,98581.16
2018-09-09T04:33:00.484Z,98586.80
2018-09-09T04:35:29.795Z,98586.80
2018-09-09T04:37:59.911Z,98589.77
2018-09-09T04:40:29.345Z,98586.26
2018-09-09T04:42:58.021Z,98584.91
2018-09-09T04:45:26.655Z,98589.77
2018-09-09T04:47:55.436Z,98588.98
2018-09-09T04:50:24.232Z,98592.18
2018-09-09T04:52:53.585Z,98600.01
2018-09-09T04:55:22.397Z,98609.44
2018-09-09T04:57:51.066Z,98608.08
2018-09-09T05:00:20.045Z,98617.51
2018-09-09T05:02:48.737Z,98619.95
2018-09-09T05:05:17.503Z,98616.45
2018-09-09T05:07:46.822Z,98616.70
2018-09-09T05:10:15.375Z,98614.59
2018-09-09T05:12:44.256Z,98619.68
2018-09-09T05:15:14.007Z,98619.94
2018-09-09T05:17:42.809Z,98618.05
2018-09-09T05:20:11.876Z,98614.29
2018-09-09T05:22:40.795Z,98614.01
2018-09-09T05:25:09.457Z,98620.44
2018-09-09T05:27:38.899Z,98622.31
2018-09-09T05:30:08.262Z,98616.09
2018-09-09T05:32:37.030Z,98619.27
2018-09-09T05:35:05.877Z,98624.84
2018-09-09T05:37:34.521Z,98624.77
2018-09-09T05:40:03.393Z,98632.01
2018-09-09T05:42:32.072Z,98633.56
2018-09-09T05:45:01.216Z,98634.86
2018-09-09T05:47:30.634Z,98636.98
2018-09-09T05:49:59.318Z,98638.03
2018-09-09T05:52:27.989Z,98640.64
2018-09-09T05:54:57.236Z,98645.37
2018-09-09T05:57:26.139Z,98650.11
2018-09-09T05:59:55.549Z,98650.73
2018-09-09T06:02:24.719Z,98644.56
2018-09-09T06:04:53.470Z,98656.86
2018-09-09T06:07:22.296Z,98649.83
2018-09-09T06:09:51.096Z,98654.13
2018-09-09T06:12:19.816Z,98648.33
2018-09-09T06:14:49.123Z,98643.89
2018-09-09T06:17:18.092Z,98641.89
2018-09-09T06:19:47.700Z,98647.67
2018-09-09T06:22:16.441Z,98644.03
2018-09-09T06:24:45.850Z,98640.36
2018-09-09T06:27:14.677Z,98645.14
2018-09-09T06:29:43.442Z,98657.44
2018-09-09T06:32:12.532Z,98662.84
2018-09-09T06:34:41.352Z,98660.88
2018-09-09T06:37:10.511Z,98661.76
2018-09-09T06:39:40.317Z,98661.31
2018-09-09T06:42:09.306Z,98660.08
2018-09-09T06:44:37.955Z,98661.23
2018-09-09T06:47:06.868Z,98665.33
2018-09-09T06:49:35.792Z,98666.83
2018-09-09T06:52:04.511Z,98662.67
2018-09-09T06:54:33.230Z,98666.84
2018-09-09T06:57:02.083Z,98660.23
2018-09-09T06:59:31.121Z,98649.66
2018-09-09T07:02:00.251Z,98662.81
2018-09-09T07:04:29.139Z,98656.87
2018-09-09T07:06:57.873Z,98656.72
2018-09-09T07:09:27.041Z,98653.36
2018-09-09T07:11:56.459Z,98654.11
2018-09-09T07:14:24.995Z,98655.58
2018-09-09T07:16:54.706Z,98650.52
2018-09-09T07:19:23.927Z,98652.87
2018-09-09T07:21:53.299Z,98652.04
2018-09-09T07:24:22.176Z,98654.77
2018-09-09T07:26:50.910Z,98654.22
2018-09-09T07:29:19.687Z,98655.59
2018-09-09T07:31:48.626Z,98654.44
2018-09-09T07:34:18.142Z,98666.09
2018-09-09T07:36:47.453Z,98670.34
2018-09-09T07:39:16.201Z,98660.81
2018-09-09T07:41:45.527Z,98666.69
2018-09-09T07:44:14.614Z,98668.25
2018-09-09T07:46:43.543Z,98667.08
2018-09-09T07:49:12.522Z,98665.67
2018-09-09T07:51:42.853Z,98667.91
2018-09-09T07:54:11.582Z,98665.66
2018-09-09T07:56:41.152Z,98664.27
2018-09-09T07:59:10.372Z,98667.56
2018-09-09T08:01:39.539Z,98673.30
2018-09-09T08:04:08.222Z,98675.77
2018-09-09T08:06:37.071Z,98673.90
2018-09-09T08:09:08.358Z,98684.42
2018-09-09T08:11:37.138Z,98685.06
2018-09-09T08:14:08.495Z,98677.19
2018-09-09T08:16:37.947Z,98676.88
2018-09-09T08:19:06.924Z,98683.23
2018-09-09T08:21:36.443Z,98673.61
2018-09-09T08:24:05.206Z,98680.09
2018-09-09T08:26:33.849Z,98679.12
2018-09-09T08:29:02.764Z,98681.54
2018-09-09T08:31:31.648Z,98682.30
2018-09-09T08:34:00.456Z,98689.69
2018-09-09T08:36:29.370Z,98689.74
2018-09-09T08:38:58.185Z,98686.59
2018-09-09T08:41:29.230Z,98681.79
2018-09-09T08:43:58.332Z,98690.75
2018-09-09T08:46:27.197Z,98682.83
2018-09-09T08:48:56.289Z,98679.95
2018-09-09T08:51:26.061Z,98687.50
2018-09-09T08:53:55.171Z,98680.40
2018-09-09T08:56:24.480Z,98682.89
2018-09-09T08:58:53.316Z,98679.24
2018-09-09T09:01:24.242Z,98678.02
2018-09-09T09:03:53.186Z,98682.37
2018-09-09T09:06:22.242Z,98677.16
2018-09-09T09:08:51.512Z,98686.14
2018-09-09T09:11:20.371Z,98683.66
2018-09-09T09:13:50.121Z,98686.47
2018-09-09T09:16:19.205Z,98681.11
2018-09-09T09:18:48.378Z,98680.41
2018-09-09T09:21:17.855Z,98680.28
2018-09-09T09:23:47.071Z,98679.16
2018-09-09T09:26:16.057Z,98676.27
2018-09-09T09:28:45.247Z,98668.94
2018-09-09T09:31:14.401Z,98670.97
2018-09-09T09:33:43.419Z,98671.97
2018-09-09T09:36:12.277Z,98664.78
2018-09-09T09:38:41.458Z,98668.86
2018-09-09T09:41:10.449Z,98671.78
2018-09-09T09:43:39.537Z,98671.33
2018-09-09T09:46:08.573Z,98666.95
2018-09-09T09:48:37.399Z,98664.27
2018-09-09T09:51:06.517Z,98665.77
2018-09-09T09:53:35.865Z,98664.27
2018-09-09T09:56:04.931Z,98658.86
2018-09-09T09:58:34.088Z,98660.89
2018-09-09T10:01:02.960Z,98660.45
2018-09-09T10:03:31.765Z,98657.61
2018-09-09T10:06:00.791Z,98661.05
2018-09-09T10:08:29.863Z,98662.69
2018-09-09T10:10:59.253Z,98662.97
2018-09-09T10:13:28.471Z,98662.20
2018-09-09T10:15:57.298Z,98663.91
2018-09-09T10:18:26.125Z,98654.76
2018-09-09T10:20:55.987Z,98656.78
2018-09-09T10:23:25.295Z,98654.54
2018-09-09T10:25:54.380Z,98645.83
2018-09-09T10:28:23.884Z,98645.85
2018-09-09T10:30:52.723Z,98645.20
2018-09-09T10:33:22.104Z,98640.70
2018-09-09T10:35:51.035Z,98638.16
2018-09-09T10:38:20.171Z,98642.59
2018-09-09T10:40:49.513Z,98631.41
2018-09-09T10:43:18.239Z,98631.33
2018-09-09T10:45:47.240Z,98637.19
2018-09-09T10:48:16.422Z,98634.03
2018-09-09T10:50:45.680Z,98623.04
2018-09-09T10:53:14.683Z,98623.85
2018-09-09T10:55:43.573Z,98620.79
2018-09-09T10:58:13.243Z,98619.45
2018-09-09T11:00:42.699Z,98625.33
2018-09-09T11:03:11.444Z,98622.95
2018-09-09T11:05:40.446Z,98624.26
2018-09-09T11:08:12.409Z,98616.69
2018-09-09T11:10:41.518Z,98616.88
2018-09-09T11:13:10.319Z,98614.37
2018-09-09T11:15:39.436Z,98615.69
2018-09-09T11:18:08.374Z,98610.59
2018-09-09T11:20:38.345Z,98601.50
2018-09-09T11:23:07.746Z,98597.91
2018-09-09T11:25:36.686Z,98604.23
2018-09-09T11:28:05.922Z,98598.45
2018-09-09T11:30:35.305Z,98600.13
2018-09-09T11:33:04.438Z,98595.59
2018-09-09T11:35:33.579Z,98595.36
2018-09-09T11:38:04.059Z,98593.48
2018-09-09T11:40:33.205Z,98590.11
2018-09-09T11:43:02.252Z,98592.36
2018-09-09T11:45:32.756Z,98581.86
2018-09-09T11:48:02.702Z,98590.63
2018-09-09T11:50:31.624Z,98588.12
2018-09-09T11:53:02.164Z,98589.51
2018-09-09T11:55:31.021Z,98589.13
2018-09-09T11:58:00.528Z,98586.94
2018-09-09T12:00:30.853Z,98585.13
2018-09-09T12:03:00.721Z,98591.84
2018-09-09T12:05:30.067Z,98594.31
2018-09-09T12:07:59.659Z,98584.37
2018-09-09T12:10:28.631Z,98593.12
2018-09-09T12:12:57.791Z,98590.84
2018-09-09T12:15:26.400Z,98589.09
2018-09-09T12:17:56.264Z,98591.46
2018-09-09T12:20:25.159Z,98591.11
2018-09-09T12:22:54.668Z,98588.41
2018-09-09T12:25:23.604Z,98581.39
2018-09-09T12:27:52.515Z,98584.02
2018-09-09T12:30:21.599Z,98581.45
2018-09-09T12:32:50.940Z,98577.30
2018-09-09T12:35:20.948Z,98573.92
2018-09-09T12:37:49.812Z,98576.70
2018-09-09T12:40:21.544Z,98577.66
2018-09-09T12:42:54.624Z,98573.33
2018-09-09T12:45:28.624Z,98573.94
2018-09-09T12:48:02.473Z,98570.73
2018-09-09T12:50:31.439Z,98573.11
2018-09-09T12:53:00.168Z,98570.97
2018-09-09T12:55:28.929Z,98568.17
2018-09-09T12:57:58.480Z,98577.48
2018-09-09T13:00:27.749Z,98570.66
2018-09-09T13:02:56.520Z,98574.36
2018-09-09T13:05:25.364Z,98566.55
2018-09-09T13:07:54.308Z,98564.95
2018-09-09T13:10:23.038Z,98565.35
2018-09-09T13:12:57.017Z,98566.19
2018-09-09T13:15:26.040Z,98556.11
2018-09-09T13:17:55.271Z,98554.42
2018-09-09T13:20:24.490Z,98553.28
2018-09-09T13:22:53.627Z,98552.70
2018-09-09T13:25:22.754Z,98551.45
2018-09-09T13:27:51.664Z,98555.38
2018-09-09T13:30:21.265Z,98558.08
2018-09-09T13:32:50.452Z,98560.11
2018-09-09T13:35:19.248Z,98555.19
2018-09-09T13:37:47.925Z,98551.47
2018-09-09T13:40:16.885Z,98555.20
2018-09-09T13:42:45.793Z,98548.51
2018-09-09T13:45:14.634Z,98546.92
2018-09-09T13:47:43.879Z,98551.30
2018-09-09T13:50:12.824Z,98543.95
2018-09-09T13:52:42.383Z,98546.53
2018-09-09T13:55:12.461Z,98549.81
2018-09-09T13:57:41.980Z,98547.84
2018-09-09T14:00:11.579Z,98548.06
2018-09-09T14:02:42.032Z,98538.20
2018-09-09T14:05:12.334Z,98533.06
2018-09-09T14:07:41.605Z,98534.05
2018-09-09T14:10:10.777Z,98529.87
2018-09-09T14:12:41.053Z,98531.61
2018-09-09T14:15:10.263Z,98529.47
2018-09-09T14:17:39.547Z,98521.94
2018-09-09T14:20:08.687Z,98520.37
2018-09-09T14:22:38.523Z,98518.98
2018-09-09T14:25:07.984Z,98512.78
2018-09-09T14:27:37.446Z,98521.09
2018-09-09T14:30:06.496Z,98516.52
2018-09-09T14:32:35.670Z,98518.09
2018-09-09T14:35:04.725Z,98514.13
2018-09-09T14:37:35.165Z,98524.64
2018-09-09T14:40:05.682Z,98514.69
2018-09-09T14:42:35.696Z,98511.52
2018-09-09T14:45:06.391Z,98508.92
2018-09-09T14:47:36.348Z,98516.42
2018-09-09T14:50:05.903Z,98514.05
2018-09-09T14:52:36.978Z,98517.00
2018-09-09T14:55:09.254Z,98515.98
2018-09-09T14:57:40.000Z,98511.48
2018-09-09T15:00:09.747Z,98508.50
2018-09-09T15:02:38.765Z,98505.45
2018-09-09T15:05:07.698Z,98505.45
2018-09-09T15:07:36.503Z,98498.88
2018-09-09T15:10:06.740Z,98502.83
2018-09-09T15:12:35.978Z,98497.06
2018-09-09T15:15:05.245Z,98493.27
2018-09-09T15:17:35.360Z,98495.84
2018-09-09T15:20:04.635Z,98498.59
2018-09-09T15:22:33.723Z,98490.66
2018-09-09T15:25:03.018Z,98490.81
2018-09-09T15:27:33.177Z,98493.97
2018-09-09T15:30:02.150Z,98495.94
2018-09-09T15:32:30.916Z,98492.76
2018-09-09T15:35:00.074Z,98489.38
2018-09-09T15:37:29.215Z,98483.97
2018-09-09T15:39:58.490Z,98488.70
2018-09-09T15:42:27.675Z,98487.26
2018-09-09T15:44:56.904Z,98489.63
2018-09-09T15:47:26.074Z,98492.73
2018-09-09T15:49:55.212Z,98486.34
2018-09-09T15:52:25.155Z,98484.94
2018-09-09T15:54:53.889Z,98498.14
2018-09-09T15:57:22.889Z,98489.02
2018-09-09T15:59:52.204Z,98491.16
2018-09-09T16:02:21.004Z,98488.33
2018-09-09T16:04:50.623Z,98496.05
2018-09-09T16:07:19.781Z,98489.11
2018-09-09T16:09:49.170Z,98487.41
2018-09-09T16:12:18.419Z,98490.11
2018-09-09T16:14:47.658Z,98487.91
2018-09-09T16:17:16.590Z,98485.31
2018-09-09T16:19:45.991Z,98495.97
2018-09-09T16:22:14.995Z,98493.17
2018-09-09T16:24:44.450Z,98493.34
2018-09-09T16:27:13.646Z,98492.69
2018-09-09T16:29:43.460Z,98495.60
2018-09-09T16:32:12.210Z,98492.92
2018-09-09T16:34:40.863Z,98491.59
2018-09-09T16:37:11.591Z,98497.82
2018-09-09T16:39:41.301Z,98494.59
2018-09-09T16:42:10.860Z,98498.28
2018-09-09T16:44:39.774Z,98497.42
2018-09-09T16:47:09.535Z,98495.33
2018-09-09T16:49:38.709Z,98492.69
2018-09-09T16:52:07.954Z,98491.42
2018-09-09T16:54:37.032Z,98493.78
2018-09-09T16:57:06.340Z,98486.23
2018-09-09T16:59:35.541Z,98483.70
2018-09-09T17:02:05.156Z,98485.20
2018-09-09T17:04:34.140Z,98487.64
2018-09-09T17:07:03.056Z,98490.84
2018-09-09T17:09:32.286Z,98489.59
2018-09-09T17:12:01.846Z,98490.33
2018-09-09T17:14:30.842Z,98487.75
2018-09-09T17:17:00.901Z,98484.79
2018-09-09T17:19:30.273Z,98490.35
2018-09-09T17:21:59.067Z,98491.81
2018-09-09T17:24:28.680Z,98495.76
2018-09-09T17:26:57.824Z,98497.36
2018-09-09T17:29:26.876Z,98501.27
2018-09-09T17:31:56.375Z,98500.88
2018-09-09T17:34:25.281Z,98500.14
2018-09-09T17:36:53.895Z,98508.50
2018-09-09T17:39:23.316Z,98504.90
2018-09-09T17:41:52.226Z,98509.30
2018-09-09T17:44:21.163Z,98504.45
2018-09-09T17:46:50.667Z,98500.30
2018-09-09T17:49:20.015Z,98505.52
2018-09-09T17:51:49.175Z,98507.33
2018-09-09T17:54:18.190Z,98508.09
2018-09-09T17:56:48.622Z,98512.09
2018-09-09T17:59:17.537Z,98512.47
2018-09-09T18:01:46.468Z,98515.30
2018-09-09T18:04:15.309Z,98514.44
2018-09-09T18:06:44.054Z,98516.61
2018-09-09T18:09:13.556Z,98525.66
2018-09-09T18:11:43.306Z,98524.73
2018-09-09T18:14:12.393Z,98528.74
2018-09-09T18:16:41.447Z,98535.01
2018-09-09T18:19:10.538Z,98535.22
2018-09-09T18:21:39.746Z,98541.47
2018-09-09T18:24:09.040Z,98535.70
2018-09-09T18:26:38.092Z,98541.42
2018-09-09T18:29:07.567Z,98544.66
2018-09-09T18:31:37.805Z,98547.13
2018-09-09T18:34:07.172Z,98549.45
2018-09-09T18:36:36.063Z,98545.53
2018-09-09T18:39:07.100Z,98549.85
2018-09-09T18:41:35.766Z,98548.89
2018-09-09T18:44:05.751Z,98553.58
2018-09-09T18:46:34.965Z,98557.83
2018-09-09T18:49:04.047Z,98558.02
2018-09-09T18:51:33.211Z,98558.87
2018-09-09T18:54:03.200Z,98567.89
2018-09-09T18:56:32.214Z,98566.10
2018-09-09T18:59:01.356Z,98571.43
2018-09-09T19:01:30.362Z,98571.69
2018-09-09T19:03:59.196Z,98573.98
2018-09-09T19:06:28.313Z,98570.17
2018-09-09T19:08:57.153Z,98569.70
2018-09-09T19:11:26.362Z,98573.91
2018-09-09T19:13:55.574Z,98573.62
2018-09-09T19:16:25.444Z,98580.77
2018-09-09T19:18:54.512Z,98581.11
2018-09-09T19:21:25.182Z,98575.55
2018-09-09T19:23:54.420Z,98578.75
2018-09-09T19:26:26.633Z,98583.50
2018-09-09T19:28:56.043Z,98582.69
2018-09-09T19:31:26.085Z,98575.72
2018-09-09T19:33:55.412Z,98585.23
2018-09-09T19:36:24.699Z,98586.11
2018-09-09T19:38:53.655Z,98593.89
2018-09-09T19:41:23.260Z,98588.02
2018-09-09T19:43:52.846Z,98590.27
2018-09-09T19:46:22.177Z,98591.28
2018-09-09T19:48:51.625Z,98593.72
2018-09-09T19:51:20.942Z,98590.02
2018-09-09T19:53:49.962Z,98598.27
2018-09-09T19:56:19.110Z,98593.20
2018-09-09T19:58:49.088Z,98603.03
2018-09-09T20:01:18.573Z,98598.16
2018-09-09T20:03:48.072Z,98599.39
2018-09-09T20:06:18.066Z,98605.00
2018-09-09T20:08:47.080Z,98610.95
2018-09-09T20:11:16.380Z,98612.33
2018-09-09T20:13:45.416Z,98613.56
2018-09-09T20:16:14.701Z,98614.67
2018-09-09T20:18:44.196Z,98624.09
2018-09-09T20:21:13.089Z,98619.08
2018-09-09T20:23:42.268Z,98619.69
2018-09-09T20:26:12.147Z,98621.69
2018-09-09T20:28:40.848Z,98623.60
2018-09-09T20:31:10.648Z,98624.80
2018-09-09T20:33:40.358Z,98631.30
2018-09-09T20:36:09.155Z,98631.99
2018-09-09T20:38:39.144Z,98630.98
2018-09-09T20:41:07.911Z,98631.66
2018-09-09T20:43:36.777Z,98643.84
2018-09-09T20:46:05.553Z,98644.86
2018-09-09T20:48:35.515Z,98643.81
2018-09-09T20:51:05.452Z,98639.74
2018-09-09T20:53:34.813Z,98644.81
2018-09-09T20:56:04.289Z,98641.70
2018-09-09T20:58:33.462Z,98645.42
2018-09-09T21:01:03.055Z,98642.04
2018-09-09T21:03:33.064Z,98646.53
2018-09-09T21:06:02.052Z,98644.53
2018-09-09T21:08:31.181Z,98650.06
2018-09-09T21:11:00.222Z,98649.93
2018-09-09T21:13:29.046Z,98651.48
2018-09-09T21:15:57.932Z,98650.03
2018-09-09T21:18:26.802Z,98658.36
2018-09-09T21:20:55.672Z,98663.02
2018-09-09T21:23:24.710Z,98664.83
2018-09-09T21:25:53.577Z,98662.47
2018-09-09T21:28:22.212Z,98667.45
2018-09-09T21:30:51.844Z,98668.25
2018-09-09T21:33:20.696Z,98671.38
2018-09-09T21:35:49.408Z,98671.12
2018-09-09T21:38:18.656Z,98666.09
2018-09-09T21:40:47.794Z,98668.66
2018-09-09T21:43:16.476Z,98663.19
2018-09-09T21:45:45.318Z,98664.59
2018-09-09T21:48:14.577Z,98660.95
2018-09-09T21:50:45.157Z,98662.42
2018-09-09T21:53:14.341Z,98670.81
2018-09-09T21:55:43.182Z,98666.81
2018-09-09T21:58:11.851Z,98671.00
2018-09-09T22:00:46.135Z,98674.30
2018-09-09T22:03:15.141Z,98676.43
2018-09-09T22:05:44.332Z,98677.63
2018-09-09T22:08:14.316Z,98680.92
2018-09-09T22:10:43.154Z,98676.51
2018-09-09T22:13:11.936Z,98679.80
2018-09-09T22:15:41.522Z,98678.38
2018-09-09T22:18:10.811Z,98675.50
2018-09-09T22:20:40.430Z,98672.19
2018-09-09T22:23:10.042Z,98673.88
2018-09-09T22:25:39.000Z,98670.16
2018-09-09T22:28:08.452Z,98677.86
2018-09-09T22:30:37.176Z,98668.13
2018-09-09T22:33:06.736Z,98668.73
2018-09-09T22:35:35.526Z,98670.73
2018-09-09T22:38:04.298Z,98672.43
2018-09-09T22:40:33.165Z,98672.43
2018-09-09T22:43:01.822Z,98665.69
2018-09-09T22:45:31.596Z,98671.65
2018-09-09T22:48:00.306Z,98662.27
2018-09-09T22:50:29.006Z,98663.98
2018-09-09T22:52:58.675Z,98662.21
2018-09-09T22:55:27.688Z,98662.45
2018-09-09T22:57:56.345Z,98660.34
2018-09-09T23:00:26.038Z,98664.71
2018-09-09T23:02:54.850Z,98663.12
2018-09-09T23:05:23.799Z,98662.84
2018-09-09T23:07:52.668Z,98658.87
2018-09-09T23:10:22.002Z,98663.20
2018-09-09T23:12:50.626Z,98670.25
2018-09-09T23:15:23.588Z,98668.72
2018-09-09T23:17:52.371Z,98664.38
2018-09-09T23:20:21.133Z,98660.64
2018-09-09T23:22:50.256Z,98660.73
2018-09-09T23:25:20.488Z,98655.94
2018-09-09T23:27:51.772Z,98653.89
2018-09-09T23:30:20.545Z,98653.38
2018-09-09T23:32:50.121Z,98649.04
2018-09-09T23:35:19.903Z,98652.07
2018-09-09T23:37:49.570Z,98652.72
2018-09-09T23:40:18.781Z,98654.37
2018-09-09T23:42:48.115Z,98646.98
2018-09-09T23:45:17.224Z,98652.96
2018-09-09T23:47:45.951Z,98652.82
2018-09-09T23:50:15.262Z,98656.39
2018-09-09T23:52:44.768Z,98652.82
2018-09-09T23:55:13.686Z,98653.09
2018-09-09T23:57:42.372Z,98652.90
